createdAt,value
2022-08-05T00:00:46.751Z,24.50
2022-08-05T00:01:49.085Z,24.49
2022-08-05T00:02:37.460Z,24.47
2022-08-05T00:03:37.411Z,24.45
2022-08-05T00:04:36.419Z,24.43
2022-08-05T00:06:05.325Z,24.40
2022-08-05T00:06:37.392Z,24.35
2022-08-05T00:08:00.465Z,24.31
2022-08-05T00:08:37.392Z,24.31
2022-08-05T00:09:36.353Z,24.30
2022-08-05T00:10:36.372Z,24.28
2022-08-05T00:11:49.001Z,24.28
2022-08-05T00:12:55.843Z,24.25
2022-08-05T00:13:39.098Z,24.25
2022-08-05T00:14:36.395Z,24.24
2022-08-05T00:15:57.632Z,24.25
2022-08-05T00:16:52.595Z,24.24
2022-08-05T00:17:37.264Z,24.24
2022-08-05T00:18:36.266Z,24.25
2022-08-05T00:19:45.684Z,24.24
2022-08-05T00:20:37.247Z,24.25
2022-08-05T00:21:36.226Z,24.22
2022-08-05T00:22:36.216Z,24.22
2022-08-05T00:23:45.658Z,24.22
2022-08-05T00:24:37.188Z,24.25
2022-08-05T00:25:45.633Z,24.24
2022-08-05T00:26:37.179Z,24.28
2022-08-05T00:27:36.706Z,24.32
2022-08-05T00:28:37.150Z,24.35
2022-08-05T00:29:38.068Z,24.40
2022-08-05T00:30:36.141Z,24.57
2022-08-05T00:31:54.223Z,24.76
2022-08-05T00:32:37.112Z,25.02
2022-08-05T00:34:53.694Z,26.18
2022-08-05T00:34:54.741Z,25.58
2022-08-05T00:35:37.073Z,26.45
2022-08-05T00:37:11.070Z,26.57
2022-08-05T00:37:52.562Z,26.67
2022-08-05T00:38:37.044Z,26.80
2022-08-05T00:39:37.145Z,26.81
2022-08-05T00:40:37.025Z,26.85
2022-08-05T00:41:51.606Z,26.84
2022-08-05T00:42:37.116Z,26.81
2022-08-05T00:43:46.635Z,26.81
2022-08-05T00:44:36.987Z,26.88
2022-08-05T00:45:43.601Z,27.00
2022-08-05T00:46:43.542Z,27.07
2022-08-05T00:47:56.585Z,27.12
2022-08-05T00:48:51.478Z,27.19
2022-08-05T00:49:44.688Z,27.22
2022-08-05T00:50:36.910Z,27.22
2022-08-05T00:51:50.396Z,27.18
2022-08-05T00:52:36.900Z,27.14
2022-08-05T00:54:00.110Z,27.10
2022-08-05T00:54:36.873Z,27.06
2022-08-05T00:55:43.540Z,27.00
2022-08-05T00:56:36.852Z,26.95
2022-08-05T00:57:55.319Z,26.92
2022-08-05T00:58:37.041Z,26.88
2022-08-05T00:59:44.559Z,26.85
2022-08-05T01:00:36.843Z,26.80
2022-08-05T01:01:42.613Z,26.76
2022-08-05T01:02:36.792Z,26.72
2022-08-05T01:03:35.765Z,26.67
2022-08-05T01:04:35.777Z,26.60
2022-08-05T01:05:35.756Z,26.55
2022-08-05T01:06:35.746Z,26.52
2022-08-05T01:07:35.727Z,26.52
2022-08-05T01:08:43.265Z,26.55
2022-08-05T01:09:36.707Z,26.63
2022-08-05T01:10:35.700Z,26.69
2022-08-05T01:11:37.235Z,26.72
2022-08-05T01:12:35.679Z,26.66
2022-08-05T01:13:57.567Z,26.60
2022-08-05T01:14:36.661Z,26.52
2022-08-05T01:15:36.818Z,26.48
2022-08-05T01:16:35.639Z,26.39
2022-08-05T01:17:39.868Z,26.29
2022-08-05T01:18:35.613Z,26.18
2022-08-05T01:20:01.823Z,26.07
2022-08-05T01:20:36.601Z,25.95
2022-08-05T01:21:38.038Z,25.80
2022-08-05T01:22:35.573Z,25.65
2022-08-05T01:23:35.564Z,25.52
2022-08-05T01:24:35.554Z,25.42
2022-08-05T01:25:40.999Z,25.33
2022-08-05T01:26:36.526Z,25.18
2022-08-05T01:27:35.516Z,25.00
2022-08-05T01:28:36.616Z,24.84
2022-08-05T01:29:35.499Z,24.71
2022-08-05T01:30:35.486Z,24.64
2022-08-05T01:31:42.776Z,24.52
2022-08-05T01:32:36.466Z,24.37
2022-08-05T01:33:35.977Z,24.20
2022-08-05T01:34:35.931Z,24.09
2022-08-05T01:35:51.620Z,23.97
2022-08-05T01:36:36.429Z,23.90
2022-08-05T01:37:36.627Z,23.76
2022-08-05T01:38:36.401Z,23.69
2022-08-05T01:39:46.816Z,23.61
2022-08-05T01:40:36.380Z,23.55
2022-08-05T01:41:35.370Z,23.51
2022-08-05T01:42:35.376Z,23.46
2022-08-05T01:43:35.341Z,23.38
2022-08-05T01:44:35.602Z,23.31
2022-08-05T01:45:42.871Z,23.22
2022-08-05T01:46:41.577Z,23.12
2022-08-05T01:47:39.262Z,22.95
2022-08-05T01:48:35.293Z,22.86
2022-08-05T01:50:00.215Z,22.85
2022-08-05T01:50:36.286Z,22.82
2022-08-05T01:51:35.254Z,22.75
2022-08-05T01:52:35.255Z,22.67
2022-08-05T01:53:57.362Z,22.64
2022-08-05T01:54:45.904Z,22.62
2022-08-05T01:55:36.473Z,22.64
2022-08-05T01:58:29.164Z,22.57
2022-08-05T01:58:29.862Z,22.60
2022-08-05T01:58:40.711Z,22.58
2022-08-05T01:59:36.167Z,22.57
2022-08-05T02:00:35.166Z,22.58
2022-08-05T02:01:37.989Z,22.62
2022-08-05T02:02:36.295Z,22.65
2022-08-05T02:03:36.129Z,22.70
2022-08-05T02:04:35.128Z,22.79
2022-08-05T02:05:36.586Z,22.85
2022-08-05T02:06:38.281Z,22.90
2022-08-05T02:07:35.087Z,22.94
2022-08-05T02:08:40.884Z,22.90
2022-08-05T02:09:36.063Z,22.85
2022-08-05T02:10:35.063Z,22.80
2022-08-05T02:11:35.040Z,22.79
2022-08-05T02:12:36.395Z,22.76
2022-08-05T02:13:36.661Z,22.72
2022-08-05T02:14:36.017Z,22.70
2022-08-05T02:15:35.002Z,22.68
2022-08-05T02:16:34.996Z,22.64
2022-08-05T02:18:30.925Z,22.61
2022-08-05T02:18:36.455Z,22.61
2022-08-05T02:19:35.959Z,22.61
2022-08-05T02:20:38.879Z,22.57
2022-08-05T02:21:43.454Z,22.60
2022-08-05T02:22:35.927Z,22.58
2022-08-05T02:23:35.711Z,22.57
2022-08-05T02:24:34.918Z,22.52
2022-08-05T02:25:49.179Z,22.46
2022-08-05T02:26:35.888Z,22.46
2022-08-05T02:27:58.883Z,22.43
2022-08-05T02:28:38.418Z,22.42
2022-08-05T02:29:59.175Z,22.36
2022-08-05T02:30:35.849Z,22.35
2022-08-05T02:31:35.277Z,22.31
2022-08-05T02:32:34.819Z,22.28
2022-08-05T02:33:36.242Z,22.25
2022-08-05T02:34:34.804Z,22.24
2022-08-05T02:35:38.090Z,22.22
2022-08-05T02:36:35.779Z,22.24
2022-08-05T02:37:34.763Z,22.25
2022-08-05T02:38:35.069Z,22.22
2022-08-05T02:39:34.794Z,22.20
2022-08-05T02:40:34.735Z,22.18
2022-08-05T02:41:43.380Z,22.17
2022-08-05T02:42:36.314Z,22.15
2022-08-05T02:43:34.703Z,22.14
2022-08-05T02:44:35.696Z,22.09
2022-08-05T02:45:51.905Z,22.10
2022-08-05T02:46:35.685Z,22.09
2022-08-05T02:47:58.713Z,22.07
2022-08-05T02:48:35.647Z,22.07
2022-08-05T02:49:36.088Z,22.03
2022-08-05T02:50:34.629Z,22.03
2022-08-05T02:52:03.917Z,21.99
2022-08-05T02:52:35.609Z,21.98
2022-08-05T02:53:39.337Z,21.98
2022-08-05T02:54:37.192Z,21.96
2022-08-05T02:55:54.376Z,21.96
2022-08-05T02:56:35.560Z,21.94
2022-08-05T02:58:11.667Z,21.92
2022-08-05T02:58:35.550Z,21.91
2022-08-05T02:59:47.734Z,21.90
2022-08-05T03:00:35.520Z,21.86
2022-08-05T03:01:34.586Z,21.82
2022-08-05T03:02:34.501Z,21.80
2022-08-05T03:04:03.267Z,21.79
2022-08-05T03:04:35.483Z,21.75
2022-08-05T03:06:53.645Z,21.74
2022-08-05T03:06:55.284Z,21.74
2022-08-05T03:08:01.155Z,21.72
2022-08-05T03:08:35.445Z,21.68
2022-08-05T03:09:37.354Z,21.68
2022-08-05T03:10:35.415Z,21.65
2022-08-05T03:11:55.743Z,21.64
2022-08-05T03:12:35.395Z,21.62
2022-08-05T03:13:51.087Z,21.59
2022-08-05T03:14:35.477Z,21.54
2022-08-05T03:15:35.357Z,21.50
2022-08-05T03:16:35.674Z,21.47
2022-08-05T03:17:34.346Z,21.47
2022-08-05T03:18:35.398Z,21.43
2022-08-05T03:19:36.171Z,21.42
2022-08-05T03:20:34.314Z,21.40
2022-08-05T03:21:41.501Z,21.35
2022-08-05T03:22:35.293Z,21.35
2022-08-05T03:23:34.681Z,21.34
2022-08-05T03:24:34.271Z,21.32
2022-08-05T03:26:03.923Z,21.29
2022-08-05T03:26:35.240Z,21.31
2022-08-05T03:27:58.039Z,21.32
2022-08-05T03:28:35.239Z,21.34
2022-08-05T03:29:45.443Z,21.34
2022-08-05T03:30:35.202Z,21.31
2022-08-05T03:31:56.734Z,21.32
2022-08-05T03:32:35.184Z,21.31
2022-08-05T03:33:49.350Z,21.28
2022-08-05T03:34:35.175Z,21.27
2022-08-05T03:35:34.160Z,21.25
2022-08-05T03:36:35.598Z,21.24
2022-08-05T03:37:45.756Z,21.24
2022-08-05T03:38:37.517Z,21.24
2022-08-05T03:39:38.152Z,21.28
2022-08-05T03:40:35.846Z,21.28
2022-08-05T03:41:38.756Z,21.27
2022-08-05T03:42:52.088Z,21.28
2022-08-05T03:44:08.434Z,21.27
2022-08-05T03:44:35.056Z,21.27
2022-08-05T03:45:57.484Z,21.27
2022-08-05T03:46:35.029Z,21.28
2022-08-05T03:47:35.146Z,21.27
2022-08-05T03:48:35.654Z,21.31
2022-08-05T03:49:51.411Z,21.34
2022-08-05T03:50:34.988Z,21.35
2022-08-05T03:52:36.468Z,21.35
2022-08-05T03:55:00.046Z,21.35
2022-08-05T03:55:50.017Z,21.35
2022-08-05T03:55:50.221Z,21.37
2022-08-05T03:56:04.810Z,21.34
2022-08-05T03:56:35.842Z,21.37
2022-08-05T03:57:41.369Z,21.40
2022-08-05T03:58:34.905Z,21.40
2022-08-05T03:59:54.316Z,21.38
2022-08-05T04:00:35.694Z,21.38
2022-08-05T04:01:33.912Z,21.40
2022-08-05T04:02:37.544Z,21.42
2022-08-05T04:03:34.846Z,21.46
2022-08-05T04:04:33.836Z,21.46
2022-08-05T04:05:34.593Z,21.44
2022-08-05T04:06:33.808Z,21.49
2022-08-05T04:07:33.797Z,21.49
2022-08-05T04:08:37.102Z,21.52
2022-08-05T04:09:36.656Z,21.54
2022-08-05T04:10:37.931Z,21.54
2022-08-05T04:11:50.853Z,21.54
2022-08-05T04:13:11.438Z,21.56
2022-08-05T04:14:11.358Z,21.54
2022-08-05T04:15:15.622Z,21.54
2022-08-05T04:16:11.328Z,21.52
2022-08-05T04:17:11.412Z,21.50
2022-08-05T04:18:22.357Z,21.52
2022-08-05T04:19:12.300Z,21.53
2022-08-05T04:20:11.290Z,21.52
2022-08-05T04:21:11.307Z,21.49
2022-08-05T04:22:12.270Z,21.49
2022-08-05T04:23:12.284Z,21.49
2022-08-05T04:24:19.355Z,21.50
2022-08-05T04:25:12.240Z,21.50
2022-08-05T04:26:11.233Z,21.47
2022-08-05T04:27:11.213Z,21.47
2022-08-05T04:28:12.755Z,21.49
2022-08-05T04:29:11.194Z,21.47
2022-08-05T04:30:11.194Z,21.49
2022-08-05T04:31:11.183Z,21.49
2022-08-05T04:32:11.167Z,21.49
2022-08-05T04:33:11.155Z,21.50
2022-08-05T04:34:18.639Z,21.50
2022-08-05T04:35:17.510Z,21.50
2022-08-05T04:36:44.707Z,21.49
2022-08-05T04:37:12.784Z,21.49
2022-08-05T04:38:11.104Z,21.49
2022-08-05T04:39:11.206Z,21.49
2022-08-05T04:40:11.187Z,21.49
2022-08-05T04:41:11.076Z,21.49
2022-08-05T04:42:11.077Z,21.49
2022-08-05T04:43:16.670Z,21.50
2022-08-05T04:44:12.049Z,21.50
2022-08-05T04:45:11.028Z,21.47
2022-08-05T04:46:12.018Z,21.47
2022-08-05T04:47:12.815Z,21.47
2022-08-05T04:48:16.377Z,21.49
2022-08-05T04:49:14.436Z,21.49
2022-08-05T04:50:11.713Z,21.47
2022-08-05T04:51:11.582Z,21.49
2022-08-05T04:52:10.972Z,21.50
2022-08-05T04:53:10.945Z,21.52
2022-08-05T04:54:12.120Z,21.53
2022-08-05T04:55:14.596Z,21.53
2022-08-05T04:56:15.064Z,21.53
2022-08-05T04:57:11.912Z,21.54
2022-08-05T04:58:12.445Z,21.52
2022-08-05T04:59:13.969Z,21.53
2022-08-05T05:00:11.878Z,21.54
2022-08-05T05:01:10.925Z,21.56
2022-08-05T05:02:37.083Z,21.58
2022-08-05T05:03:11.926Z,21.59
2022-08-05T05:04:11.839Z,21.61
2022-08-05T05:05:26.150Z,21.64
2022-08-05T05:06:36.191Z,21.62
2022-08-05T05:07:11.794Z,21.65
2022-08-05T05:08:14.497Z,21.67
2022-08-05T05:09:14.093Z,21.65
2022-08-05T05:10:11.800Z,21.65
2022-08-05T05:11:10.758Z,21.67
2022-08-05T05:12:10.750Z,21.68
2022-08-05T05:13:10.733Z,21.68
2022-08-05T05:14:10.728Z,21.69
2022-08-05T05:15:11.710Z,21.71
2022-08-05T05:16:11.749Z,21.71
2022-08-05T05:17:10.693Z,21.72
2022-08-05T05:18:10.682Z,21.71
2022-08-05T05:19:19.197Z,21.72
2022-08-05T05:20:11.665Z,21.75
2022-08-05T05:21:10.654Z,21.75
2022-08-05T05:22:23.445Z,21.75
2022-08-05T05:23:19.570Z,21.77
2022-08-05T05:24:11.627Z,21.75
2022-08-05T05:25:17.060Z,21.79
2022-08-05T05:26:11.605Z,21.79
2022-08-05T05:27:10.585Z,21.80
2022-08-05T05:28:10.586Z,21.80
2022-08-05T05:29:14.270Z,21.80
2022-08-05T05:30:15.282Z,21.82
2022-08-05T05:31:11.554Z,21.82
2022-08-05T05:32:12.408Z,21.83
2022-08-05T05:33:17.066Z,21.84
2022-08-05T05:34:11.534Z,21.86
2022-08-05T05:35:10.529Z,21.86
2022-08-05T05:36:11.496Z,21.86
2022-08-05T05:37:10.480Z,21.84
2022-08-05T05:38:13.471Z,21.83
2022-08-05T05:39:11.092Z,21.83
2022-08-05T05:40:10.459Z,21.84
2022-08-05T05:41:10.440Z,21.84
2022-08-05T05:42:10.440Z,21.84
2022-08-05T05:43:10.422Z,21.83
2022-08-05T05:44:35.963Z,21.83
2022-08-05T05:45:11.403Z,21.84
2022-08-05T05:46:16.325Z,21.86
2022-08-05T05:47:30.237Z,21.88
2022-08-05T05:48:11.380Z,21.92
2022-08-05T05:49:22.597Z,21.98
2022-08-05T05:50:11.351Z,21.99
2022-08-05T05:51:15.414Z,22.02
2022-08-05T05:52:13.073Z,22.03
2022-08-05T05:53:21.284Z,22.05
2022-08-05T05:54:11.629Z,22.07
2022-08-05T05:55:13.284Z,22.10
2022-08-05T05:56:10.295Z,22.12
2022-08-05T05:57:13.738Z,22.14
2022-08-05T05:58:11.270Z,22.17
2022-08-05T05:59:10.257Z,22.31
2022-08-05T06:00:10.280Z,22.36
2022-08-05T06:01:12.654Z,22.46
2022-08-05T06:02:10.228Z,22.49
2022-08-05T06:03:54.192Z,22.55
2022-08-05T06:04:11.844Z,22.55
2022-08-05T06:05:16.655Z,22.58
2022-08-05T06:06:11.191Z,22.60
2022-08-05T06:07:10.629Z,22.61
2022-08-05T06:08:10.161Z,22.62
2022-08-05T06:09:16.636Z,22.64
2022-08-05T06:10:11.150Z,22.65
2022-08-05T06:11:10.122Z,22.67
2022-08-05T06:12:10.142Z,22.68
2022-08-05T06:13:10.110Z,22.73
2022-08-05T06:14:10.106Z,22.77
2022-08-05T06:15:13.634Z,22.80
2022-08-05T06:16:28.396Z,22.82
2022-08-05T06:17:22.597Z,22.88
2022-08-05T06:18:11.071Z,22.91
2022-08-05T06:19:10.045Z,22.97
2022-08-05T06:20:18.875Z,23.04
2022-08-05T06:21:18.435Z,23.12
2022-08-05T06:22:11.025Z,23.22
2022-08-05T06:23:10.012Z,23.28
2022-08-05T06:24:11.911Z,23.36
2022-08-05T06:25:24.354Z,23.42
2022-08-05T06:26:19.397Z,23.51
2022-08-05T06:28:08.820Z,23.60
2022-08-05T06:28:21.341Z,23.65
2022-08-05T06:29:42.837Z,23.73
2022-08-05T06:30:20.238Z,23.84
2022-08-05T06:31:18.111Z,23.91
2022-08-05T06:32:21.290Z,23.98
2022-08-05T06:33:10.994Z,24.05
2022-08-05T06:34:09.899Z,24.13
2022-08-05T06:35:15.592Z,24.22
2022-08-05T06:36:10.873Z,24.28
2022-08-05T06:37:09.863Z,24.35
2022-08-05T06:38:11.828Z,24.42
2022-08-05T06:39:09.871Z,24.47
2022-08-05T06:40:09.836Z,24.49
2022-08-05T06:41:09.824Z,24.53
2022-08-05T06:42:09.813Z,24.62
2022-08-05T06:43:57.807Z,24.73
2022-08-05T06:44:10.785Z,24.78
2022-08-05T06:45:09.774Z,24.83
2022-08-05T06:46:10.785Z,24.91
2022-08-05T06:47:10.294Z,24.99
2022-08-05T06:48:44.270Z,25.00
2022-08-05T06:49:10.737Z,24.96
2022-08-05T06:50:09.726Z,25.00
2022-08-05T06:51:23.832Z,25.03
2022-08-05T06:52:37.994Z,25.08
2022-08-05T06:53:11.431Z,25.09
2022-08-05T06:54:11.928Z,25.10
2022-08-05T06:55:10.670Z,25.14
2022-08-05T06:56:25.951Z,25.14
2022-08-05T06:57:58.179Z,25.14
2022-08-05T06:58:19.939Z,25.17
2022-08-05T06:59:11.995Z,25.17
2022-08-05T07:00:09.958Z,25.20
2022-08-05T07:01:09.649Z,25.17
2022-08-05T07:02:09.602Z,25.17
2022-08-05T07:03:09.805Z,25.17
2022-08-05T07:04:09.582Z,25.20
2022-08-05T07:05:11.632Z,25.23
2022-08-05T07:06:15.065Z,25.24
2022-08-05T07:07:09.544Z,25.28
2022-08-05T07:08:10.786Z,25.33
2022-08-05T07:09:09.545Z,25.35
2022-08-05T07:10:09.517Z,25.39
2022-08-05T07:11:15.373Z,25.45
2022-08-05T07:12:10.497Z,25.50
2022-08-05T07:13:09.489Z,25.55
2022-08-05T07:14:20.001Z,25.60
2022-08-05T07:15:10.458Z,25.64
2022-08-05T07:16:09.456Z,25.75
2022-08-05T07:17:58.679Z,25.75
2022-08-05T07:18:14.662Z,25.80
2022-08-05T07:19:10.424Z,25.76
2022-08-05T07:21:10.400Z,25.82
2022-08-05T07:22:09.391Z,25.83
2022-08-05T07:23:09.394Z,25.85
2022-08-05T07:24:11.308Z,25.92
2022-08-05T07:25:22.394Z,25.97
2022-08-05T07:26:10.354Z,26.01
2022-08-05T07:27:09.341Z,25.99
2022-08-05T07:28:11.697Z,25.98
2022-08-05T07:29:10.319Z,25.99
2022-08-05T07:30:24.260Z,26.06
2022-08-05T07:31:10.293Z,26.13
2022-08-05T07:32:09.294Z,26.23
2022-08-05T07:33:10.686Z,26.29
2022-08-05T07:34:10.277Z,26.37
2022-08-05T07:36:01.623Z,26.43
2022-08-05T07:36:20.111Z,26.45
2022-08-05T07:37:11.642Z,26.52
2022-08-05T07:38:12.399Z,26.58
2022-08-05T07:39:24.434Z,26.66
2022-08-05T07:40:27.027Z,26.75
2022-08-05T07:42:09.118Z,26.72
2022-08-05T07:42:15.301Z,26.80
2022-08-05T07:43:20.004Z,26.87
2022-08-05T07:44:14.266Z,26.95
2022-08-05T07:45:10.152Z,27.10
2022-08-05T07:46:11.243Z,27.14
2022-08-05T07:47:10.220Z,27.27
2022-08-05T07:48:09.142Z,27.22
2022-08-05T07:49:09.112Z,27.25
2022-08-05T07:50:09.107Z,27.32
2022-08-05T07:51:23.670Z,27.34
2022-08-05T07:52:10.083Z,27.39
2022-08-05T07:53:09.116Z,27.47
2022-08-05T07:54:09.757Z,27.55
2022-08-05T07:55:15.864Z,27.59
2022-08-05T07:57:02.642Z,27.65
2022-08-05T07:57:22.504Z,27.70
2022-08-05T07:58:10.624Z,27.70
2022-08-05T07:59:10.006Z,27.79
2022-08-05T08:00:11.491Z,27.96
2022-08-05T08:01:12.393Z,27.94
2022-08-05T08:02:15.830Z,27.96
2022-08-05T08:03:14.050Z,27.96
2022-08-05T08:04:09.969Z,27.93
2022-08-05T08:05:08.949Z,27.94
2022-08-05T08:06:08.929Z,27.97
2022-08-05T08:07:08.919Z,28.00
2022-08-05T08:08:12.235Z,28.09
2022-08-05T08:09:08.926Z,28.31
2022-08-05T08:10:08.955Z,28.43
2022-08-05T08:11:09.147Z,28.43
2022-08-05T08:12:30.570Z,28.40
2022-08-05T08:13:09.853Z,28.31
2022-08-05T08:14:08.852Z,28.12
2022-08-05T08:15:09.696Z,28.03
2022-08-05T08:16:49.908Z,28.00
2022-08-05T08:17:09.823Z,27.82
2022-08-05T08:18:09.970Z,27.65
2022-08-05T08:19:08.786Z,27.60
2022-08-05T08:20:22.899Z,27.54
2022-08-05T08:21:15.997Z,27.50
2022-08-05T08:22:09.777Z,27.43
2022-08-05T08:24:00.446Z,27.41
2022-08-05T08:24:13.806Z,27.49
2022-08-05T08:25:15.818Z,27.60
2022-08-05T08:26:09.730Z,27.65
2022-08-05T08:27:08.710Z,27.57
2022-08-05T08:28:11.368Z,27.57
2022-08-05T08:29:29.381Z,27.63
2022-08-05T08:30:18.985Z,27.74
2022-08-05T08:31:09.662Z,27.77
2022-08-05T08:32:10.943Z,27.85
2022-08-05T08:33:08.666Z,27.92
2022-08-05T08:34:09.642Z,27.97
2022-08-05T08:35:13.752Z,28.07
2022-08-05T08:37:09.613Z,28.03
2022-08-05T08:38:08.597Z,27.85
2022-08-05T08:39:15.430Z,27.79
2022-08-05T08:40:09.583Z,27.87
2022-08-05T08:41:08.785Z,27.82
2022-08-05T08:42:32.564Z,27.82
2022-08-05T08:44:54.656Z,27.94
2022-08-05T08:45:17.857Z,28.27
2022-08-05T08:45:23.434Z,28.07
2022-08-05T08:46:10.090Z,28.27
2022-08-05T08:47:21.944Z,28.34
2022-08-05T08:48:22.314Z,28.49
2022-08-05T08:50:22.565Z,28.44
2022-08-05T08:50:30.388Z,28.37
2022-08-05T08:52:02.021Z,28.46
2022-08-05T08:52:13.678Z,28.54
2022-08-05T08:53:12.268Z,28.59
2022-08-05T08:54:08.432Z,28.67
2022-08-05T08:55:13.089Z,28.78
2022-08-05T08:56:09.411Z,28.86
2022-08-05T08:57:11.443Z,28.95
2022-08-05T08:58:08.703Z,29.14
2022-08-05T08:59:14.848Z,29.28
2022-08-05T09:00:09.374Z,29.37
2022-08-05T09:01:11.057Z,29.48
2022-08-05T09:02:09.360Z,29.58
2022-08-05T09:03:08.346Z,29.71
2022-08-05T09:04:10.754Z,29.76
2022-08-05T09:05:18.124Z,29.70
2022-08-05T09:06:11.598Z,29.48
2022-08-05T09:07:19.268Z,29.34
2022-08-05T09:08:09.762Z,29.28
2022-08-05T09:09:08.285Z,29.30
2022-08-05T09:10:08.277Z,29.28
2022-08-05T09:11:08.266Z,29.30
2022-08-05T09:12:20.539Z,29.42
2022-08-05T09:13:09.246Z,29.55
2022-08-05T09:14:54.324Z,29.70
2022-08-05T09:15:09.231Z,29.73
2022-08-05T09:16:08.212Z,29.82
2022-08-05T09:17:09.783Z,29.94
2022-08-05T09:18:09.191Z,30.04
2022-08-05T09:19:08.193Z,30.10
2022-08-05T09:20:08.473Z,30.16
2022-08-05T09:21:11.662Z,30.17
2022-08-05T09:22:17.799Z,30.20
2022-08-05T09:23:09.739Z,30.22
2022-08-05T09:24:10.145Z,30.27
2022-08-05T09:25:13.648Z,30.22
2022-08-05T09:26:09.290Z,30.22
2022-08-05T09:27:08.103Z,30.24
2022-08-05T09:28:08.093Z,30.29
2022-08-05T09:29:08.798Z,30.32
2022-08-05T09:30:08.065Z,30.47
2022-08-05T09:31:22.732Z,30.58
2022-08-05T09:32:51.841Z,30.61
2022-08-05T09:33:09.068Z,30.70
2022-08-05T09:34:09.882Z,30.76
2022-08-05T09:35:08.031Z,30.72
2022-08-05T09:36:16.246Z,30.67
2022-08-05T09:37:15.270Z,30.58
2022-08-05T09:38:16.935Z,30.60
2022-08-05T09:39:18.063Z,30.64
2022-08-05T09:40:09.023Z,30.72
2022-08-05T09:41:08.204Z,30.76
2022-08-05T09:42:07.949Z,30.80
2022-08-05T09:43:08.616Z,30.86
2022-08-05T09:44:07.921Z,30.97
2022-08-05T09:46:04.775Z,31.06
2022-08-05T09:46:09.075Z,31.02
2022-08-05T09:47:12.548Z,31.02
2022-08-05T09:48:08.899Z,31.09
2022-08-05T09:49:19.116Z,31.04
2022-08-05T09:50:08.863Z,31.04
2022-08-05T09:51:15.250Z,31.09
2022-08-05T09:52:08.857Z,31.14
2022-08-05T09:53:08.813Z,31.14
2022-08-05T09:54:07.835Z,31.09
2022-08-05T09:55:57.458Z,31.04
2022-08-05T09:56:12.898Z,31.01
2022-08-05T09:57:23.491Z,30.97
2022-08-05T09:58:08.778Z,30.99
2022-08-05T09:59:07.778Z,31.04
2022-08-05T10:00:07.896Z,30.98
2022-08-05T10:01:15.380Z,30.99
2022-08-05T10:02:08.764Z,30.94
2022-08-05T10:03:07.774Z,30.94
2022-08-05T10:04:10.600Z,30.98
2022-08-05T10:05:07.991Z,30.97
2022-08-05T10:06:07.818Z,31.02
2022-08-05T10:07:21.045Z,31.06
2022-08-05T10:08:36.744Z,30.99
2022-08-05T10:09:08.681Z,30.91
2022-08-05T10:10:15.140Z,30.98
2022-08-05T10:11:08.662Z,31.10
2022-08-05T10:12:31.020Z,31.23
2022-08-05T10:13:09.713Z,31.39
2022-08-05T10:14:07.626Z,31.51
2022-08-05T10:15:07.729Z,31.63
2022-08-05T10:16:07.597Z,31.78
2022-08-05T10:17:07.611Z,31.86
2022-08-05T10:18:08.578Z,31.91
2022-08-05T10:19:09.126Z,31.89
2022-08-05T10:20:09.925Z,31.85
2022-08-05T10:21:11.911Z,31.86
2022-08-05T10:22:09.073Z,31.86
2022-08-05T10:23:08.962Z,31.88
2022-08-05T10:24:10.795Z,31.84
2022-08-05T10:25:07.611Z,31.81
2022-08-05T10:26:08.321Z,31.73
2022-08-05T10:27:08.569Z,31.62
2022-08-05T10:28:12.807Z,31.62
2022-08-05T10:29:08.592Z,31.61
2022-08-05T10:31:20.921Z,31.68
2022-08-05T10:32:47.700Z,31.70
2022-08-05T10:32:51.665Z,31.84
2022-08-05T10:33:09.189Z,31.91
2022-08-05T10:34:08.432Z,32.00
2022-08-05T10:35:07.415Z,32.06
2022-08-05T10:36:07.395Z,32.01
2022-08-05T10:37:07.406Z,31.91
2022-08-05T10:38:08.420Z,31.84
2022-08-05T10:39:10.485Z,31.81
2022-08-05T10:40:17.696Z,31.81
2022-08-05T10:41:08.391Z,31.85
2022-08-05T10:42:07.355Z,31.76
2022-08-05T10:43:07.379Z,31.75
2022-08-05T10:44:08.326Z,31.81
2022-08-05T10:45:21.136Z,31.73
2022-08-05T10:46:08.318Z,31.70
2022-08-05T10:47:10.271Z,31.63
2022-08-05T10:48:31.861Z,31.51
2022-08-05T10:49:10.462Z,31.46
2022-08-05T10:50:32.323Z,31.38
2022-08-05T10:51:21.788Z,31.26
2022-08-05T10:52:10.291Z,31.16
2022-08-05T10:53:07.288Z,31.26
2022-08-05T10:54:28.331Z,31.34
2022-08-05T10:55:08.243Z,31.57
2022-08-05T10:56:21.301Z,31.76
2022-08-05T10:57:08.865Z,31.92
2022-08-05T10:58:07.188Z,32.03
2022-08-05T10:59:12.510Z,32.01
2022-08-05T11:00:13.398Z,32.13
2022-08-05T11:01:08.167Z,32.25
2022-08-05T11:02:07.262Z,32.32
2022-08-05T11:03:25.508Z,32.40
2022-08-05T11:04:08.213Z,32.44
2022-08-05T11:05:07.128Z,32.45
2022-08-05T11:06:14.700Z,32.52
2022-08-05T11:07:08.120Z,32.67
2022-08-05T11:08:22.185Z,32.72
2022-08-05T11:09:08.091Z,32.88
2022-08-05T11:10:10.005Z,32.93
2022-08-05T11:11:14.545Z,32.89
2022-08-05T11:12:08.052Z,33.00
2022-08-05T11:13:07.069Z,33.14
2022-08-05T11:14:07.033Z,33.26
2022-08-05T11:15:19.289Z,33.22
2022-08-05T11:16:08.014Z,33.28
2022-08-05T11:17:59.746Z,33.35
2022-08-05T11:18:11.683Z,33.38
2022-08-05T11:20:10.821Z,33.01
2022-08-05T11:20:16.695Z,33.16
2022-08-05T11:21:11.368Z,33.03
2022-08-05T11:22:06.957Z,33.11
2022-08-05T11:23:09.073Z,32.89
2022-08-05T11:24:14.557Z,32.69
2022-08-05T11:26:02.942Z,32.67
2022-08-05T11:26:09.065Z,32.77
2022-08-05T11:27:06.919Z,32.92
2022-08-05T11:28:06.899Z,32.94
2022-08-05T11:29:14.008Z,32.82
2022-08-05T11:30:07.926Z,32.82
2022-08-05T11:31:06.909Z,32.93
2022-08-05T11:32:08.040Z,33.03
2022-08-05T11:33:06.852Z,33.19
2022-08-05T11:34:08.180Z,33.23
2022-08-05T11:35:06.838Z,33.32
2022-08-05T11:36:08.053Z,33.41
2022-08-05T11:38:28.003Z,33.50
2022-08-05T11:38:37.005Z,33.45
2022-08-05T11:39:07.931Z,33.49
2022-08-05T11:40:06.814Z,33.56
2022-08-05T11:41:35.510Z,33.71
2022-08-05T11:42:07.764Z,33.82
2022-08-05T11:43:06.767Z,33.94
2022-08-05T11:44:08.253Z,33.93
2022-08-05T11:45:23.338Z,33.86
2022-08-05T11:46:23.384Z,33.87
2022-08-05T11:47:12.034Z,33.98
2022-08-05T11:48:07.707Z,34.09
2022-08-05T11:49:07.883Z,34.24
2022-08-05T11:50:06.687Z,34.32
2022-08-05T11:51:06.680Z,34.05
2022-08-05T11:52:11.576Z,33.78
2022-08-05T11:53:09.814Z,33.56
2022-08-05T11:54:06.642Z,33.47
2022-08-05T11:55:07.777Z,33.50
2022-08-05T11:56:06.622Z,33.63
2022-08-05T11:57:07.907Z,33.63
2022-08-05T11:58:10.254Z,33.53
2022-08-05T11:59:13.820Z,33.54
2022-08-05T12:00:07.585Z,33.65
2022-08-05T12:01:08.278Z,33.88
2022-08-05T12:02:06.575Z,33.94
2022-08-05T12:03:07.584Z,34.15
2022-08-05T12:04:06.543Z,34.13
2022-08-05T12:05:18.402Z,34.09
2022-08-05T12:06:10.115Z,34.19
2022-08-05T12:07:06.529Z,34.17
2022-08-05T12:08:10.957Z,34.25
2022-08-05T12:09:07.499Z,34.00
2022-08-05T12:10:09.513Z,33.86
2022-08-05T12:11:07.483Z,33.68
2022-08-05T12:12:06.565Z,33.50
2022-08-05T12:13:16.790Z,33.31
2022-08-05T12:14:07.568Z,33.16
2022-08-05T12:15:06.433Z,33.07
2022-08-05T12:16:14.418Z,32.87
2022-08-05T12:17:14.542Z,32.72
2022-08-05T12:18:10.822Z,32.62
2022-08-05T12:19:08.305Z,32.51
2022-08-05T12:20:25.770Z,32.47
2022-08-05T12:21:07.384Z,32.44
2022-08-05T12:22:09.465Z,32.35
2022-08-05T12:23:06.385Z,32.30
2022-08-05T12:24:07.096Z,32.23
2022-08-05T12:25:06.348Z,32.13
2022-08-05T12:26:06.317Z,32.08
2022-08-05T12:27:09.973Z,32.07
2022-08-05T12:28:07.307Z,32.06
2022-08-05T12:29:09.425Z,32.03
2022-08-05T12:30:07.279Z,32.06
2022-08-05T12:31:06.284Z,32.01
2022-08-05T12:32:07.620Z,32.00
2022-08-05T12:33:07.522Z,31.99
2022-08-05T12:34:07.254Z,31.95
2022-08-05T12:35:06.254Z,31.93
2022-08-05T12:36:08.219Z,31.93
2022-08-05T12:37:06.225Z,31.95
2022-08-05T12:38:06.203Z,32.00
2022-08-05T12:39:07.057Z,31.95
2022-08-05T12:40:10.815Z,31.95
2022-08-05T12:41:12.291Z,31.88
2022-08-05T12:42:08.378Z,31.86
2022-08-05T12:43:06.162Z,31.86
2022-08-05T12:44:06.145Z,31.91
2022-08-05T12:45:09.549Z,31.88
2022-08-05T12:46:06.128Z,31.89
2022-08-05T12:47:06.124Z,31.96
2022-08-05T12:48:27.457Z,32.29
2022-08-05T12:49:13.284Z,32.66
2022-08-05T12:50:07.347Z,32.94
2022-08-05T12:51:06.078Z,33.28
2022-08-05T12:52:12.131Z,33.45
2022-08-05T12:53:07.068Z,33.75
2022-08-05T12:54:16.590Z,33.75
2022-08-05T12:55:07.039Z,33.57